Time;durP1;ratioP1;P1;durP2;ratioP2;P2;SDS_P1;SDS_P2;PMS_P1;PMS_P2;Temp;Humidity;BMP_temperature;BMP_pressure;BME280_temperature;BME280_humidity;BME280_pressure;Samples;Min_cycle;Max_cycle;Signal;HPM_P1;HPM_P2
2022/09/22 00:01:57;;;;;;;2.20;1.00;;;19.00;50.20;;;;;;4978756;28;20038;-73
2022/09/22 00:04:23;;;;;;;5.38;1.20;;;18.90;50.10;;;;;;4997626;28;20125;-71
2022/09/22 00:06:51;;;;;;;3.00;0.80;;;18.90;50.20;;;;;;4998821;28;20476;-71
2022/09/22 00:09:19;;;;;;;1.88;0.93;;;18.80;49.70;;;;;;4999949;28;20093;-75
2022/09/22 00:11:51;;;;;;;2.25;0.90;;;18.70;50.40;;;;;;4982773;28;20495;-68
2022/09/22 00:14:28;;;;;;;3.40;0.90;;;18.70;50.40;;;;;;4990902;28;20034;-77
2022/09/22 00:16:57;;;;;;;2.65;0.77;;;18.60;50.70;;;;;;5010092;28;20029;-83
2022/09/22 00:19:35;;;;;;;4.78;0.93;;;18.60;51.20;;;;;;4997209;28;20063;-69
2022/09/22 00:22:01;;;;;;;3.08;1.00;;;18.60;50.70;;;;;;4996309;28;20027;-70
2022/09/22 00:24:27;;;;;;;3.42;1.30;;;18.50;50.60;;;;;;4978884;28;20031;-83
2022/09/22 00:26:56;;;;;;;4.22;1.30;;;18.50;50.90;;;;;;4996272;28;20071;-81
2022/09/22 00:29:23;;;;;;;2.17;0.82;;;18.60;51.10;;;;;;4996222;28;20479;-83
2022/09/22 00:31:50;;;;;;;3.78;1.30;;;18.50;50.80;;;;;;4996307;28;20027;-84
2022/09/22 00:34:22;;;;;;;3.38;1.00;;;18.40;50.80;;;;;;4978667;28;20065;-73
2022/09/22 00:36:48;;;;;;;1.35;0.70;;;18.40;51.20;;;;;;4992069;28;20057;-73
2022/09/22 00:39:19;;;;;;;3.50;0.95;;;18.50;51.10;;;;;;4978318;28;20027;-73
2022/09/22 00:41:49;;;;;;;2.45;1.05;;;18.50;50.50;;;;;;4995938;28;20582;-76
2022/09/22 00:44:37;;;;;;;5.47;1.00;;;18.40;51.20;;;;;;4995670;28;20092;-80
2022/09/22 00:47:25;;;;;;;2.53;0.80;;;18.30;50.60;;;;;;4995709;28;20530;-71
2022/09/22 00:50:16;;;;;;;2.28;0.90;;;18.30;50.70;;;;;;4994889;28;20446;-72
2022/09/22 00:52:51;;;;;;;4.47;1.30;;;18.30;50.90;;;;;;4995933;28;20026;-72
2022/09/22 00:56:04;;;;;;;3.88;0.82;;;18.40;51.40;;;;;;4995685;28;20045;-79
2022/09/22 00:58:49;;;;;;;1.98;0.82;;;18.40;51.00;;;;;;4988417;28;20113;-73
2022/09/22 01:01:15;;;;;;;5.45;1.00;;;18.40;51.20;;;;;;4980226;28;20404;-67
2022/09/22 01:03:42;;;;;;;2.50;0.85;;;18.40;51.40;;;;;;4995735;28;20025;-67
2022/09/22 01:06:12;;;;;;;1.70;0.80;;;18.30;51.30;;;;;;4995265;28;20129;-76
2022/09/22 01:08:39;;;;;;;3.58;0.95;;;18.30;51.40;;;;;;4978097;28;20069;-64
2022/09/22 01:11:09;;;;;;;3.38;1.40;;;18.30;51.40;;;;;;4995242;28;20030;-64
2022/09/22 01:13:56;;;;;;;2.97;0.88;;;18.30;51.40;;;;;;4977485;28;20356;-67
2022/09/22 01:16:52;;;;;;;4.03;0.90;;;18.30;51.20;;;;;;4995459;28;20049;-70
2022/09/22 01:19:54;;;;;;;3.50;0.88;;;18.20;51.90;;;;;;4999679;28;20073;-69
2022/09/22 01:22:46;;;;;;;2.78;0.82;;;18.20;51.60;;;;;;5005923;28;20049;-69
2022/09/22 01:25:37;;;;;;;2.78;1.00;;;18.10;51.30;;;;;;5003033;28;20046;-77
2022/09/22 01:28:25;;;;;;;2.35;0.98;;;18.20;51.20;;;;;;4999736;28;20018;-70
2022/09/22 01:30:58;;;;;;;3.75;1.13;;;18.20;51.60;;;;;;5003655;28;20046;-78
2022/09/22 01:33:36;;;;;;;;;;;18.20;51.60;;;;;;5003789;28;20109;-82
2022/09/22 01:36:12;;;;;;;3.42;0.88;;;18.20;52.00;;;;;;4994890;28;19909;-78
2022/09/22 01:39:15;;;;;;;2.00;0.82;;;18.20;51.50;;;;;;4996009;28;20433;-66
2022/09/22 01:42:36;;;;;;;4.60;0.80;;;18.30;51.20;;;;;;4964790;28;20048;-81
2022/09/22 01:45:10;;;;;;;3.15;0.90;;;18.30;51.30;;;;;;4970944;28;20073;-78
2022/09/22 01:47:44;;;;;;;4.07;0.90;;;18.30;51.50;;;;;;5006106;28;20026;-72
2022/09/22 01:50:19;;;;;;;3.75;1.10;;;18.40;51.20;;;;;;5003726;28;20097;-77
2022/09/22 01:52:46;;;;;;;4.43;0.90;;;18.40;51.20;;;;;;5001267;28;20109;-78
2022/09/22 01:55:18;;;;;;;2.58;0.80;;;18.50;51.30;;;;;;4995852;28;20030;-80
2022/09/22 01:58:04;;;;;;;1.63;0.77;;;18.50;51.20;;;;;;4995654;28;20049;-76
2022/09/22 02:00:31;;;;;;;3.63;0.80;;;18.50;51.30;;;;;;4983432;28;20073;-83
2022/09/22 02:02:59;;;;;;;2.72;0.90;;;18.50;51.00;;;;;;4957877;28;20023;-81
2022/09/22 02:05:38;;;;;;;2.00;0.90;;;18.50;51.40;;;;;;4974987;28;20027;-79
2022/09/22 02:08:13;;;;;;;2.40;0.90;;;18.50;51.40;;;;;;4974482;28;20051;-73
2022/09/22 02:10:44;;;;;;;4.32;1.38;;;18.50;51.10;;;;;;4974625;28;20435;-80
2022/09/22 02:13:10;;;;;;;2.35;0.65;;;18.40;51.30;;;;;;4974536;28;20037;-83
2022/09/22 02:18:26;;;;;;;;;;;18.40;51.60;;;;;;4975601;28;20034;-80
2022/09/22 02:20:52;;;;;;;2.15;0.68;;;18.30;51.20;;;;;;4974742;28;19988;-83
2022/09/22 02:23:18;;;;;;;2.33;1.00;;;18.30;51.40;;;;;;4974636;28;20496;-81
2022/09/22 02:25:45;;;;;;;2.10;0.90;;;18.30;51.50;;;;;;4957095;28;20032;-75
2022/09/22 02:28:15;;;;;;;2.90;0.77;;;18.30;51.60;;;;;;4974461;28;20047;-80
2022/09/22 02:30:43;;;;;;;2.10;0.98;;;18.30;51.60;;;;;;4975041;28;20030;-71
2022/09/22 02:33:11;;;;;;;2.53;0.88;;;18.30;51.40;;;;;;4976381;28;20554;-80
2022/09/22 02:35:40;;;;;;;2.47;1.00;;;18.20;52.10;;;;;;4974989;28;20051;-76
2022/09/22 02:38:33;;;;;;;3.38;1.02;;;18.20;51.50;;;;;;4974351;28;20027;-77
2022/09/22 02:41:17;;;;;;;2.35;1.02;;;18.20;51.50;;;;;;4975107;28;20030;-80
2022/09/22 02:44:07;;;;;;;2.03;0.85;;;18.20;51.50;;;;;;4974836;28;20065;-72
2022/09/22 02:46:43;;;;;;;2.60;1.10;;;18.20;51.60;;;;;;4979906;28;20030;-63
2022/09/22 02:49:13;;;;;;;3.00;0.90;;;18.10;51.60;;;;;;4984055;28;20108;-67
2022/09/22 02:51:40;;;;;;;1.65;0.90;;;18.10;51.70;;;;;;4978077;28;20518;-69
2022/09/22 02:54:06;;;;;;;3.28;0.82;;;18.10;51.80;;;;;;4974286;28;20031;-71
2022/09/22 02:56:33;;;;;;;3.47;1.00;;;18.20;51.90;;;;;;4974083;28;20027;-73
2022/09/22 02:58:59;;;;;;;2.38;1.00;;;18.20;51.90;;;;;;4974046;28;20150;-74
2022/09/22 03:01:25;;;;;;;3.95;1.15;;;18.20;51.70;;;;;;4974133;28;20485;-68
2022/09/22 03:03:52;;;;;;;2.25;0.90;;;18.10;51.70;;;;;;4956997;28;20035;-72
2022/09/22 03:06:21;;;;;;;2.30;0.75;;;18.10;51.60;;;;;;4973804;28;20464;-67
2022/09/22 03:08:46;;;;;;;2.63;0.95;;;18.10;51.70;;;;;;4974006;28;20438;-69
2022/09/22 03:11:12;;;;;;;3.25;1.25;;;18.10;51.60;;;;;;4973772;28;20019;-71
2022/09/22 03:13:38;;;;;;;4.50;1.05;;;18.20;51.70;;;;;;4976096;28;20061;-64
2022/09/22 03:16:04;;;;;;;2.95;0.90;;;18.20;51.60;;;;;;4977493;28;20334;-65
2022/09/22 03:18:30;;;;;;;2.80;0.90;;;18.30;51.70;;;;;;4977779;28;20050;-65
2022/09/22 03:20:55;;;;;;;4.43;0.80;;;18.30;51.70;;;;;;4977659;28;20129;-65
2022/09/22 03:23:21;;;;;;;2.42;0.90;;;18.40;51.70;;;;;;4977770;28;20034;-63
2022/09/22 03:25:47;;;;;;;4.35;0.88;;;18.40;51.50;;;;;;4977529;28;20033;-64
2022/09/22 03:28:14;;;;;;;3.53;0.90;;;18.30;51.50;;;;;;4977444;28;20050;-65
2022/09/22 03:30:39;;;;;;;3.50;0.82;;;18.40;51.80;;;;;;4977388;28;20496;-65
2022/09/22 03:33:05;;;;;;;2.80;1.13;;;18.40;51.60;;;;;;4977395;28;20031;-65
2022/09/22 03:35:31;;;;;;;3.28;1.10;;;18.40;51.60;;;;;;4977346;28;20035;-65
2022/09/22 03:37:57;;;;;;;2.08;0.80;;;18.40;51.70;;;;;;4977391;28;20027;-72
2022/09/22 03:40:22;;;;;;;9.18;1.55;;;18.40;51.70;;;;;;4977834;28;20023;-69
2022/09/22 03:42:48;;;;;;;4.22;1.20;;;18.40;51.50;;;;;;4977757;28;20030;-65
2022/09/22 03:45:15;;;;;;;3.30;0.95;;;18.30;51.50;;;;;;4977155;28;20019;-65
2022/09/22 03:47:41;;;;;;;2.25;0.90;;;18.40;51.70;;;;;;4977094;28;20038;-63
2022/09/22 03:50:07;;;;;;;2.53;0.82;;;18.30;51.50;;;;;;4977154;28;20027;-65
2022/09/22 03:52:33;;;;;;;2.80;0.90;;;18.30;51.50;;;;;;4977183;28;20180;-65
2022/09/22 03:55:01;;;;;;;1.75;0.88;;;18.30;51.60;;;;;;4976459;28;20444;-65
2022/09/22 03:57:27;;;;;;;2.97;0.95;;;18.30;51.60;;;;;;4977102;28;20026;-63
2022/09/22 03:59:53;;;;;;;4.85;1.38;;;18.30;51.50;;;;;;4976848;28;20035;-64
2022/09/22 04:02:19;;;;;;;3.88;0.90;;;18.40;51.60;;;;;;4977067;28;20157;-65
2022/09/22 04:04:45;;;;;;;4.60;1.42;;;18.40;51.80;;;;;;4976660;28;20030;-64
2022/09/22 04:07:11;;;;;;;2.63;1.00;;;18.30;51.70;;;;;;4976092;28;20042;-65
2022/09/22 04:09:37;;;;;;;4.35;1.13;;;18.40;51.80;;;;;;4976576;28;20377;-65
2022/09/22 04:12:02;;;;;;;3.53;0.93;;;18.20;51.60;;;;;;4976335;28;20034;-64
2022/09/22 04:14:29;;;;;;;2.67;1.00;;;18.10;51.90;;;;;;4976265;28;20035;-69
2022/09/22 04:16:55;;;;;;;2.60;1.10;;;18.20;52.00;;;;;;4976548;28;20027;-64
2022/09/22 04:19:21;;;;;;;7.05;1.00;;;18.10;51.80;;;;;;4976546;28;20026;-64
2022/09/22 04:21:47;;;;;;;3.08;1.02;;;18.00;51.90;;;;;;4976637;28;20480;-64
2022/09/22 04:24:14;;;;;;;4.10;1.00;;;17.90;52.00;;;;;;4976301;28;20015;-64
2022/09/22 04:26:39;;;;;;;2.67;1.00;;;17.90;52.00;;;;;;4976543;28;20092;-65
2022/09/22 04:29:05;;;;;;;4.22;1.20;;;17.80;51.90;;;;;;4976496;28;20026;-64
2022/09/22 04:31:31;;;;;;;3.08;1.15;;;17.60;51.90;;;;;;4976229;28;20180;-64
2022/09/22 04:33:56;;;;;;;3.30;1.10;;;17.60;52.10;;;;;;4975963;28;20100;-64
2022/09/22 04:36:22;;;;;;;2.20;0.85;;;17.50;52.00;;;;;;4976496;28;20023;-65
2022/09/22 04:38:48;;;;;;;2.20;0.82;;;17.40;52.20;;;;;;4976418;28;20094;-64
2022/09/22 04:41:16;;;;;;;3.03;1.10;;;17.50;52.50;;;;;;4976359;28;20023;-64
2022/09/22 04:43:42;;;;;;;3.67;1.10;;;17.40;52.00;;;;;;4976321;28;20027;-66
2022/09/22 04:46:08;;;;;;;2.97;0.98;;;17.40;52.30;;;;;;4976163;28;20034;-64
2022/09/22 04:48:34;;;;;;;3.53;1.02;;;17.50;52.40;;;;;;4976061;28;20030;-64
2022/09/22 04:51:00;;;;;;;2.45;1.10;;;17.40;52.30;;;;;;4959059;28;20030;-64
2022/09/22 04:53:27;;;;;;;1.88;0.65;;;17.50;52.20;;;;;;4975860;28;20543;-64
2022/09/22 04:55:55;;;;;;;3.53;0.90;;;17.40;52.20;;;;;;4976187;28;20102;-67
2022/09/22 04:58:21;;;;;;;2.40;0.80;;;17.40;52.50;;;;;;4976283;28;20058;-66
2022/09/22 05:00:47;;;;;;;4.25;1.27;;;17.30;52.20;;;;;;4976467;28;20126;-64
2022/09/22 05:03:13;;;;;;;3.30;1.00;;;17.30;52.30;;;;;;4976255;28;20102;-70
2022/09/22 05:05:39;;;;;;;2.10;0.80;;;17.30;52.50;;;;;;4975529;28;20027;-64
2022/09/22 05:08:05;;;;;;;2.88;1.10;;;17.30;52.60;;;;;;4976074;28;20057;-65
2022/09/22 05:10:33;;;;;;;3.63;1.15;;;17.30;52.60;;;;;;4976665;28;20125;-65
2022/09/22 05:12:58;;;;;;;4.05;1.20;;;17.30;52.60;;;;;;4976200;28;20051;-66
2022/09/22 05:15:25;;;;;;;6.38;1.42;;;17.30;52.70;;;;;;4975435;28;20106;-64
2022/09/22 05:17:53;;;;;;;4.07;1.10;;;17.30;52.50;;;;;;4975754;28;20030;-67
2022/09/22 05:20:21;;;;;;;3.08;1.10;;;17.20;52.70;;;;;;4975837;28;20109;-65
2022/09/22 05:22:47;;;;;;;6.25;1.10;;;17.20;52.40;;;;;;4979852;28;20023;-64
2022/09/22 05:25:15;;;;;;;3.17;1.25;;;17.20;52.60;;;;;;4976191;28;20027;-65
2022/09/22 05:27:49;;;;;;;6.97;1.63;;;17.20;53.00;;;;;;4976197;28;20369;-68
2022/09/22 05:30:16;;;;;;;4.47;1.00;;;17.30;53.10;;;;;;4958862;28;20130;-68
2022/09/22 05:32:43;;;;;;;4.78;1.15;;;17.30;52.80;;;;;;4985487;28;20030;-67
2022/09/22 05:35:11;;;;;;;3.25;1.30;;;17.20;52.80;;;;;;4994381;28;20034;-67
2022/09/22 05:37:41;;;;;;;2.60;0.98;;;17.20;52.60;;;;;;4995306;28;20053;-65
2022/09/22 05:40:07;;;;;;;2.92;1.08;;;17.20;52.30;;;;;;4978980;28;20031;-67
2022/09/22 05:42:37;;;;;;;4.25;1.52;;;17.10;52.70;;;;;;4976059;28;20499;-65
2022/09/22 05:45:03;;;;;;;5.32;1.50;;;17.20;53.20;;;;;;4975130;28;20078;-72
2022/09/22 05:47:29;;;;;;;4.75;1.30;;;17.20;52.60;;;;;;4975273;28;20027;-74
2022/09/22 05:49:55;;;;;;;5.07;1.30;;;17.10;52.90;;;;;;4975161;28;20031;-74
2022/09/22 05:52:20;;;;;;;6.88;1.85;;;17.20;52.70;;;;;;4983591;28;20022;-68
2022/09/22 05:54:46;;;;;;;6.13;1.48;;;17.20;53.40;;;;;;4994464;28;20034;-67
2022/09/22 05:57:12;;;;;;;10.63;1.75;;;17.30;53.00;;;;;;4982837;28;20023;-70
2022/09/22 05:59:37;;;;;;;5.28;1.60;;;17.40;52.30;;;;;;4984671;28;20015;-69
2022/09/22 06:02:06;;;;;;;4.95;1.20;;;17.60;52.50;;;;;;4984081;28;20034;-66
2022/09/22 06:04:32;;;;;;;4.38;1.30;;;17.80;51.90;;;;;;4984287;28;21485;-68
2022/09/22 06:06:58;;;;;;;4.95;1.30;;;17.90;51.80;;;;;;4988136;28;20046;-68
2022/09/22 06:09:24;;;;;;;5.25;1.60;;;18.00;51.60;;;;;;4982578;28;20030;-70
2022/09/22 06:11:50;;;;;;;4.93;1.60;;;18.20;51.50;;;;;;4985464;28;20021;-70
2022/09/22 06:14:16;;;;;;;4.97;1.40;;;18.40;51.40;;;;;;4993997;28;20039;-68
2022/09/22 06:16:42;;;;;;;8.57;1.42;;;18.60;50.90;;;;;;4994205;28;20018;-69
2022/09/22 06:19:08;;;;;;;5.75;1.63;;;18.70;50.60;;;;;;4993861;28;20088;-68
2022/09/22 06:21:34;;;;;;;8.60;1.42;;;18.90;50.50;;;;;;4994076;28;20026;-73
2022/09/22 06:24:00;;;;;;;3.28;1.30;;;19.10;49.40;;;;;;4993922;28;20034;-70
2022/09/22 06:26:27;;;;;;;3.33;1.30;;;19.20;49.80;;;;;;4976569;28;20590;-66
2022/09/22 06:28:52;;;;;;;4.65;1.20;;;19.10;49.60;;;;;;4993809;28;20037;-73
2022/09/22 06:31:18;;;;;;;6.22;1.40;;;18.90;49.80;;;;;;4993642;28;20027;-75
2022/09/22 06:33:49;;;;;;;7.13;1.73;;;18.80;50.30;;;;;;4993851;28;20040;-74
2022/09/22 06:36:21;;;;;;;5.97;1.60;;;18.80;49.20;;;;;;4994278;28;20027;-78
2022/09/22 06:38:47;;;;;;;4.82;1.55;;;18.80;50.30;;;;;;4993856;28;20036;-81
2022/09/22 06:41:13;;;;;;;5.43;1.50;;;18.70;50.00;;;;;;4993664;28;20023;-74
2022/09/22 06:43:41;;;;;;;3.90;1.30;;;18.90;50.10;;;;;;4993414;28;20590;-73
2022/09/22 06:46:09;;;;;;;6.18;1.30;;;19.10;50.00;;;;;;4993315;28;20041;-72
2022/09/22 06:48:36;;;;;;;5.18;1.38;;;19.20;50.10;;;;;;4992510;28;20495;-72
2022/09/22 06:51:02;;;;;;;9.70;1.75;;;19.40;50.30;;;;;;4993454;28;20109;-69
2022/09/22 06:53:29;;;;;;;11.75;1.80;;;19.50;49.60;;;;;;4993273;28;20526;-71
2022/09/22 06:55:54;;;;;;;9.32;2.13;;;19.70;48.10;;;;;;4976038;28;20065;-68
2022/09/22 06:58:21;;;;;;;4.88;1.60;;;19.90;49.40;;;;;;4993114;28;20054;-67
2022/09/22 07:00:47;;;;;;;6.93;1.50;;;20.10;48.70;;;;;;4992610;28;20058;-69
2022/09/22 07:03:24;;;;;;;7.82;2.05;;;20.00;48.60;;;;;;4992871;28;20451;-67
2022/09/22 07:06:01;;;;;;;14.48;2.92;;;20.10;47.20;;;;;;4992707;28;20053;-68
2022/09/22 07:08:28;;;;;;;7.50;1.98;;;20.00;48.70;;;;;;4993026;28;20432;-68
2022/09/22 07:11:03;;;;;;;11.85;2.45;;;19.90;48.60;;;;;;4992790;28;20097;-69
2022/09/22 07:13:30;;;;;;;5.55;1.77;;;20.00;47.20;;;;;;4992655;28;20113;-67
2022/09/22 07:16:01;;;;;;;8.93;2.35;;;20.10;48.70;;;;;;4975369;28;20031;-66
2022/09/22 07:18:28;;;;;;;8.20;2.47;;;20.20;48.20;;;;;;4993822;28;20026;-69
2022/09/22 07:21:05;;;;;;;11.30;2.17;;;20.20;48.30;;;;;;4993480;28;20093;-72
2022/09/22 07:23:34;;;;;;;13.98;3.78;;;20.30;47.90;;;;;;4992671;28;20094;-67
2022/09/22 07:26:20;;;;;;;4.05;1.70;;;20.30;47.80;;;;;;4993117;28;20065;-73
2022/09/22 07:28:50;;;;;;;7.68;2.15;;;20.40;46.60;;;;;;4992878;28;20396;-70
2022/09/22 07:31:16;;;;;;;7.63;2.05;;;20.50;47.60;;;;;;4993586;28;20368;-72
2022/09/22 07:33:44;;;;;;;7.60;1.80;;;20.50;47.60;;;;;;4993109;28;20026;-70
2022/09/22 07:36:16;;;;;;;5.90;1.83;;;20.50;47.10;;;;;;4977254;28;20034;-74
2022/09/22 07:38:45;;;;;;;23.92;6.47;;;20.40;47.50;;;;;;4993282;28;20034;-74
2022/09/22 07:41:13;;;;;;;6.88;2.00;;;20.40;47.20;;;;;;4993234;28;20029;-69
2022/09/22 07:43:40;;;;;;;8.55;2.30;;;20.40;47.50;;;;;;4993062;28;20030;-67
2022/09/22 07:46:07;;;;;;;12.38;2.92;;;20.40;47.50;;;;;;4993055;28;20056;-73
2022/09/22 07:48:35;;;;;;;7.60;1.88;;;20.50;47.50;;;;;;4992639;28;20476;-70
2022/09/22 07:51:07;;;;;;;8.63;2.05;;;20.60;47.50;;;;;;4992617;28;20575;-69
2022/09/22 07:53:33;;;;;;;10.25;2.00;;;20.70;46.20;;;;;;4994844;28;20031;-68
2022/09/22 07:56:09;;;;;;;8.15;2.97;;;20.60;47.10;;;;;;4994786;28;20542;-68
2022/09/22 07:58:35;;;;;;;14.85;4.30;;;20.70;46.90;;;;;;4995158;28;20466;-68
2022/09/22 08:01:05;;;;;;;10.88;2.35;;;20.60;47.00;;;;;;4996837;28;20109;-70
2022/09/22 08:03:31;;;;;;;7.22;1.92;;;20.60;47.10;;;;;;4978495;28;20404;-69
2022/09/22 08:06:04;;;;;;;11.02;2.53;;;20.60;47.40;;;;;;4996876;28;20030;-68
2022/09/22 08:08:33;;;;;;;5.72;1.92;;;20.50;47.30;;;;;;4996633;28;20045;-68
2022/09/22 08:11:07;;;;;;;8.10;2.45;;;20.40;47.00;;;;;;4996535;28;20034;-67
2022/09/22 08:13:33;;;;;;;4.45;1.77;;;20.40;47.50;;;;;;4997840;28;20034;-68
2022/09/22 08:16:02;;;;;;;11.20;2.47;;;20.40;47.40;;;;;;4996549;28;20026;-67
2022/09/22 08:18:28;;;;;;;23.73;2.40;;;20.40;47.40;;;;;;4996269;28;20057;-67
2022/09/22 08:20:54;;;;;;;9.95;1.52;;;20.40;47.50;;;;;;4995933;28;20023;-71
2022/09/22 08:23:19;;;;;;;12.25;1.85;;;20.50;47.60;;;;;;4995679;28;20029;-68
2022/09/22 08:25:45;;;;;;;7.90;2.00;;;20.50;47.20;;;;;;4995872;28;20388;-67
2022/09/22 08:28:11;;;;;;;8.55;2.00;;;20.50;47.20;;;;;;4995939;28;20022;-67
2022/09/22 08:30:38;;;;;;;4.60;1.88;;;20.50;47.20;;;;;;4995541;28;20075;-68
2022/09/22 08:33:03;;;;;;;10.18;1.30;;;20.50;47.10;;;;;;4995779;28;20411;-68
2022/09/22 08:35:29;;;;;;;6.00;1.92;;;20.40;47.40;;;;;;4995485;28;20041;-68
2022/09/22 08:37:55;;;;;;;7.57;1.42;;;20.50;47.40;;;;;;4995560;28;20018;-69
2022/09/22 08:40:22;;;;;;;6.82;1.65;;;20.50;47.30;;;;;;4995561;28;20034;-69
2022/09/22 08:42:52;;;;;;;7.10;1.70;;;20.60;47.40;;;;;;4995335;28;20050;-70
2022/09/22 08:45:34;;;;;;;6.38;1.30;;;20.60;47.30;;;;;;4994906;28;20487;-69
2022/09/22 08:54:03;;;;;;;8.82;2.00;;;20.70;46.20;;;;;;4995068;28;20033;-68
2022/09/22 08:56:40;;;;;;;5.82;1.77;;;20.70;47.30;;;;;;4995020;28;20065;-69
2022/09/22 08:59:21;;;;;;;5.70;1.50;;;20.80;47.60;;;;;;4995171;28;20029;-68
2022/09/22 09:02:24;;;;;;;10.02;1.63;;;20.90;47.00;;;;;;4995310;28;20033;-69
2022/09/22 09:05:16;;;;;;;4.25;1.73;;;20.80;45.90;;;;;;4994829;28;20062;-68
2022/09/22 09:08:05;;;;;;;6.85;1.63;;;20.90;46.20;;;;;;4994493;28;20080;-69
2022/09/22 09:11:12;;;;;;;5.40;1.42;;;21.00;46.00;;;;;;4994168;28;20484;-68
2022/09/22 09:13:47;;;;;;;7.53;1.63;;;20.90;45.60;;;;;;4994251;28;20389;-67
2022/09/22 09:16:31;;;;;;;10.13;1.80;;;20.90;45.90;;;;;;4994776;28;20031;-72
2022/09/22 09:19:15;;;;;;;6.57;1.27;;;21.00;46.20;;;;;;4994943;28;20026;-76
2022/09/22 09:21:47;;;;;;;4.30;1.67;;;21.00;45.90;;;;;;4995003;28;20050;-68
2022/09/22 09:24:42;;;;;;;5.55;1.45;;;21.10;47.10;;;;;;4994645;28;20023;-71
2022/09/22 09:27:14;;;;;;;10.77;2.00;;;21.10;46.90;;;;;;4993785;28;20037;-70
2022/09/22 09:29:53;;;;;;;13.30;1.85;;;21.20;47.00;;;;;;4994457;28;20049;-70
2022/09/22 09:32:45;;;;;;;15.77;2.50;;;21.20;45.60;;;;;;4994890;28;20563;-70
2022/09/22 09:35:16;;;;;;;10.00;1.67;;;21.30;46.80;;;;;;4993430;28;20070;-69
2022/09/22 09:37:44;;;;;;;14.40;2.15;;;21.40;46.60;;;;;;4994509;28;20018;-71
2022/09/22 09:40:16;;;;;;;16.70;2.17;;;21.50;46.30;;;;;;4993985;28;20056;-70
2022/09/22 09:42:46;;;;;;;7.35;1.80;;;21.50;46.50;;;;;;4994176;28;20063;-66
2022/09/22 09:45:14;;;;;;;8.57;1.58;;;21.50;46.80;;;;;;4994085;28;20027;-76
2022/09/22 09:47:46;;;;;;;5.05;1.42;;;21.60;46.70;;;;;;4994359;28;20029;-69
2022/09/22 09:50:13;;;;;;;6.35;1.90;;;21.80;46.90;;;;;;4994279;28;20018;-68
2022/09/22 09:52:39;;;;;;;9.88;1.85;;;21.90;46.80;;;;;;4994279;28;20034;-69
2022/09/22 09:55:24;;;;;;;10.68;1.45;;;22.00;46.70;;;;;;4993941;28;20037;-70
2022/09/22 09:58:05;;;;;;;4.65;1.38;;;22.10;46.60;;;;;;4993772;28;20046;-69
2022/09/22 10:00:33;;;;;;;4.70;1.73;;;22.20;46.60;;;;;;4993604;28;20065;-68
2022/09/22 10:03:02;;;;;;;6.45;1.95;;;22.20;46.50;;;;;;4993854;28;20057;-69
2022/09/22 10:05:29;;;;;;;7.15;1.60;;;22.40;46.50;;;;;;4993787;28;20035;-70
2022/09/22 10:08:01;;;;;;;6.32;1.60;;;22.50;46.50;;;;;;4993735;28;20087;-69
2022/09/22 10:10:40;;;;;;;7.22;1.40;;;22.60;46.50;;;;;;4993982;28;20054;-70
2022/09/22 10:13:05;;;;;;;5.80;1.10;;;22.70;46.70;;;;;;4993863;28;20022;-70
2022/09/22 10:15:39;;;;;;;8.50;1.27;;;22.70;46.50;;;;;;4976010;28;20507;-69
2022/09/22 10:18:23;;;;;;;7.20;1.23;;;22.80;47.10;;;;;;4993725;28;20027;-68
2022/09/22 10:21:17;;;;;;;2.47;0.95;;;22.90;47.30;;;;;;4993821;28;20029;-71
2022/09/22 10:23:45;;;;;;;4.35;1.17;;;22.90;47.70;;;;;;4990341;28;20026;-70
2022/09/22 10:26:27;;;;;;;4.65;1.17;;;22.90;47.70;;;;;;4993495;28;20066;-70
2022/09/22 10:29:05;;;;;;;7.32;1.45;;;22.90;46.80;;;;;;4993535;28;20121;-75
2022/09/22 10:31:31;;;;;;;5.53;1.30;;;23.00;47.70;;;;;;4993350;28;20445;-72
2022/09/22 10:33:58;;;;;;;4.07;1.00;;;23.10;47.30;;;;;;4993050;28;20042;-67
2022/09/22 10:36:27;;;;;;;5.30;1.60;;;23.20;46.90;;;;;;4993319;28;20023;-65
2022/09/22 10:38:53;;;;;;;5.22;1.50;;;23.40;46.90;;;;;;4992892;28;20061;-63
2022/09/22 10:41:27;;;;;;;6.40;1.13;;;23.50;46.40;;;;;;4993057;28;20023;-64
2022/09/22 10:44:00;;;;;;;;;;;23.70;46.40;;;;;;4993117;28;20033;-63
2022/09/22 10:46:47;;;;;;;9.07;2.33;;;23.90;44.80;;;;;;4993024;28;19925;-65
2022/09/22 10:49:43;;;;;;;15.30;1.85;;;24.10;45.40;;;;;;4993291;28;20030;-63
2022/09/22 10:52:29;;;;;;;6.18;1.50;;;24.20;45.40;;;;;;4993088;28;20387;-64
2022/09/22 10:55:20;;;;;;;5.28;1.27;;;24.30;44.70;;;;;;4993077;28;20092;-67
2022/09/22 10:58:08;;;;;;;5.18;1.20;;;24.30;45.20;;;;;;4988626;28;20046;-67
2022/09/22 11:00:36;;;;;;;11.80;2.05;;;24.30;43.40;;;;;;4993011;28;20040;-66
2022/09/22 11:03:20;;;;;;;4.30;0.98;;;24.30;44.50;;;;;;4992827;28;20022;-68
2022/09/22 11:12:36;;;;;;;9.85;1.90;;;24.30;43.70;;;;;;4973580;28;20046;-65
2022/09/22 11:15:33;;;;;;;4.82;1.05;;;24.30;44.80;;;;;;4973413;28;20038;-69
2022/09/22 11:17:59;;;;;;;10.98;1.90;;;24.10;43.70;;;;;;4956115;28;20093;-69
2022/09/22 11:20:31;;;;;;;13.38;1.52;;;24.20;44.80;;;;;;4956117;28;20329;-69
2022/09/22 11:23:05;;;;;;;3.40;1.13;;;24.20;42.90;;;;;;4973583;28;20026;-67
2022/09/22 11:25:54;;;;;;;4.38;1.33;;;24.20;42.70;;;;;;4974142;28;20397;-69
2022/09/22 11:28:52;;;;;;;4.03;1.00;;;24.10;42.40;;;;;;4973358;28;20113;-67
2022/09/22 11:31:35;;;;;;;3.42;1.10;;;24.00;43.50;;;;;;4973682;28;20520;-69
2022/09/22 11:34:23;;;;;;;3.40;1.05;;;24.10;41.70;;;;;;4974783;28;20035;-70
2022/09/22 11:37:26;;;;;;;3.78;1.20;;;24.00;41.70;;;;;;4977463;28;20085;-73
2022/09/22 11:40:11;;;;;;;4.15;1.00;;;23.90;42.30;;;;;;4977307;28;20053;-72
2022/09/22 11:42:50;;;;;;;3.28;1.15;;;23.90;42.10;;;;;;4977291;28;20027;-69
2022/09/22 11:45:56;;;;;;;4.55;1.40;;;23.90;43.60;;;;;;4977097;28;20026;-71
2022/09/22 11:48:42;;;;;;;2.30;1.13;;;24.00;42.00;;;;;;4977251;28;20015;-70
2022/09/22 11:51:45;;;;;;;2.50;1.20;;;24.30;41.60;;;;;;4977253;28;20054;-69
2022/09/22 11:54:50;;;;;;;4.55;1.08;;;24.50;41.30;;;;;;4976883;28;20088;-71
2022/09/22 11:57:23;;;;;;;6.40;1.50;;;24.70;40.50;;;;;;4977045;28;20173;-70
2022/09/22 11:59:58;;;;;;;5.97;1.27;;;24.80;41.80;;;;;;4977031;28;20469;-73
2022/09/22 12:02:53;;;;;;;4.53;1.90;;;25.00;40.60;;;;;;4976903;28;20026;-73
2022/09/22 12:05:34;;;;;;;4.63;1.42;;;25.20;41.40;;;;;;4971073;28;20122;-72
2022/09/22 12:08:00;;;;;;;5.30;1.40;;;25.30;41.10;;;;;;4993577;28;20042;-72
2022/09/22 12:10:38;;;;;;;7.10;1.40;;;25.10;40.90;;;;;;4996636;28;20030;-68
2022/09/22 12:13:11;;;;;;;5.50;1.27;;;24.90;39.60;;;;;;4996126;28;20085;-69
2022/09/22 12:16:01;;;;;;;8.07;1.73;;;24.80;41.10;;;;;;4978828;28;20036;-70
2022/09/22 12:18:42;;;;;;;9.15;1.80;;;24.90;39.50;;;;;;4996229;28;20030;-71
2022/09/22 12:21:52;;;;;;;4.53;1.30;;;24.90;39.50;;;;;;4996248;28;20423;-69
2022/09/22 12:24:19;;;;;;;6.82;1.60;;;25.00;39.50;;;;;;4996323;28;20109;-68
2022/09/22 12:26:47;;;;;;;3.85;1.40;;;24.90;41.00;;;;;;4996384;28;20026;-71
2022/09/22 12:29:15;;;;;;;3.03;1.20;;;24.80;41.00;;;;;;4978944;28;20113;-69
2022/09/22 12:31:44;;;;;;;5.70;1.60;;;24.70;40.90;;;;;;4995932;28;20531;-69
2022/09/22 12:34:39;;;;;;;8.88;2.20;;;24.70;41.40;;;;;;4995546;28;20027;-69
2022/09/22 12:37:28;;;;;;;5.78;1.50;;;24.70;40.80;;;;;;4995566;28;20046;-70
2022/09/22 12:39:56;;;;;;;5.15;1.20;;;24.60;40.30;;;;;;4980535;28;20033;-69
2022/09/22 12:42:27;;;;;;;5.93;1.50;;;24.60;41.50;;;;;;4995641;28;20046;-69
2022/09/22 12:44:57;;;;;;;3.72;1.10;;;24.80;41.20;;;;;;4994934;28;20034;-71
2022/09/22 12:47:35;;;;;;;4.88;1.00;;;25.00;41.20;;;;;;4994835;28;20046;-68
2022/09/22 12:50:12;;;;;;;6.22;1.40;;;25.10;41.20;;;;;;4995560;28;20022;-69
2022/09/22 12:52:40;;;;;;;3.65;1.08;;;25.30;40.20;;;;;;4995248;28;20034;-69
2022/09/22 12:55:28;;;;;;;10.98;1.35;;;25.50;41.20;;;;;;4995380;28;20133;-72
2022/09/22 12:57:58;;;;;;;7.13;1.65;;;25.70;41.00;;;;;;4995397;28;20018;-73
2022/09/22 13:00:31;;;;;;;4.22;1.10;;;25.80;41.10;;;;;;4995469;28;20049;-69
2022/09/22 13:02:58;;;;;;;9.18;1.30;;;25.70;41.70;;;;;;4995309;28;20135;-70
2022/09/22 13:05:23;;;;;;;7.97;1.65;;;25.60;41.70;;;;;;4994935;28;20456;-68
2022/09/22 13:07:53;;;;;;;3.88;1.20;;;25.50;41.70;;;;;;4995425;28;20146;-69
2022/09/22 13:10:21;;;;;;;91.57;5.80;;;25.30;42.30;;;;;;4995305;28;20023;-69
2022/09/22 13:15:32;;;;;;;72.40;5.68;;;25.10;42.40;;;;;;4994895;28;20038;-70
2022/09/22 13:17:58;;;;;;;16.02;1.85;;;25.10;42.90;;;;;;4995197;28;20105;-71
2022/09/22 13:20:31;;;;;;;7.65;1.58;;;24.90;42.70;;;;;;4995539;28;20097;-71
2022/09/22 13:23:13;;;;;;;3.80;1.10;;;24.80;42.90;;;;;;4995375;28;20058;-69
2022/09/22 13:25:41;;;;;;;6.28;1.00;;;25.00;41.40;;;;;;4995695;28;20105;-71
2022/09/22 13:28:27;;;;;;;3.85;1.05;;;25.20;43.40;;;;;;4977805;28;20045;-69
2022/09/22 13:31:14;;;;;;;4.05;1.00;;;25.30;42.50;;;;;;4995658;28;20031;-68
2022/09/22 13:33:40;;;;;;;4.10;1.30;;;25.50;40.40;;;;;;4995270;28;20069;-70